createdAt,value
2022-12-05T00:01:13.575Z,25.10
2022-12-05T00:03:39.962Z,25.73
2022-12-05T00:06:06.834Z,24.85
2022-12-05T00:08:33.181Z,24.75
2022-12-05T00:10:59.580Z,25.35
2022-12-05T00:13:26.011Z,24.95
2022-12-05T00:15:52.474Z,25.17
2022-12-05T00:18:18.869Z,25.88
2022-12-05T00:20:47.132Z,23.75
2022-12-05T00:23:13.673Z,25.70
2022-12-05T00:25:40.200Z,25.00
2022-12-05T00:28:07.177Z,24.45
2022-12-05T00:30:33.611Z,24.35
2022-12-05T00:33:00.141Z,24.45
2022-12-05T00:35:26.554Z,24.20
2022-12-05T00:37:52.962Z,24.38
2022-12-05T00:40:19.649Z,25.60
2022-12-05T00:42:50.921Z,23.52
2022-12-05T00:45:18.726Z,24.60
2022-12-05T00:47:45.193Z,25.20
2022-12-05T00:50:11.857Z,24.85
2022-12-05T00:52:38.267Z,26.40
2022-12-05T00:55:05.027Z,23.92
2022-12-05T00:57:32.190Z,23.50
2022-12-05T00:59:58.912Z,24.35
2022-12-05T01:02:25.643Z,23.90
2022-12-05T01:04:52.355Z,25.25
2022-12-05T01:07:18.803Z,24.85
2022-12-05T01:09:45.178Z,25.48
2022-12-05T01:12:11.606Z,24.13
2022-12-05T01:14:38.122Z,24.95
2022-12-05T01:17:04.544Z,24.67
2022-12-05T01:19:32.315Z,25.80
2022-12-05T01:22:00.145Z,24.23
2022-12-05T01:24:27.796Z,24.30
2022-12-05T01:26:54.381Z,25.20
2022-12-05T01:29:23.038Z,24.88
2022-12-05T01:31:49.850Z,25.63
2022-12-05T01:34:17.911Z,25.17
2022-12-05T01:36:45.157Z,24.40
2022-12-05T01:39:12.656Z,25.77
2022-12-05T01:41:43.334Z,25.10
2022-12-05T01:44:12.826Z,24.95
2022-12-05T01:46:44.997Z,25.02
2022-12-05T01:49:16.505Z,24.65
2022-12-05T01:51:47.444Z,25.40
2022-12-05T01:54:16.287Z,25.75
2022-12-05T01:56:48.000Z,24.58
2022-12-05T01:59:14.904Z,24.70
2022-12-05T02:01:41.582Z,24.60
2022-12-05T02:04:08.611Z,24.98
2022-12-05T02:06:35.011Z,25.02
2022-12-05T02:09:02.090Z,25.13
2022-12-05T02:11:31.749Z,25.50
2022-12-05T02:13:58.056Z,24.20
2022-12-05T02:16:42.468Z,23.77
2022-12-05T02:19:35.003Z,25.23
2022-12-05T02:22:18.178Z,25.70
2022-12-05T02:25:00.423Z,25.20
2022-12-05T02:28:09.858Z,24.23
2022-12-05T02:30:45.865Z,25.45
2022-12-05T02:33:21.803Z,24.90
2022-12-05T02:36:07.029Z,24.40
2022-12-05T02:38:59.764Z,25.92
2022-12-05T02:41:37.808Z,23.63
2022-12-05T02:44:19.404Z,26.13
2022-12-05T02:46:48.394Z,24.27
2022-12-05T02:49:21.198Z,23.08
2022-12-05T02:51:52.105Z,24.90
2022-12-05T02:54:24.072Z,23.73
2022-12-05T02:56:52.850Z,23.92
2022-12-05T02:59:23.359Z,24.25
2022-12-05T03:01:50.866Z,22.73
2022-12-05T03:04:19.930Z,22.95
2022-12-05T03:06:57.832Z,24.45
2022-12-05T03:09:35.274Z,23.52
2022-12-05T03:12:12.678Z,23.35
2022-12-05T03:14:46.137Z,21.63
2022-12-05T03:19:52.740Z,23.02
2022-12-05T03:22:43.126Z,21.95
2022-12-05T03:25:12.267Z,23.73
2022-12-05T03:27:51.118Z,22.00
2022-12-05T03:30:21.032Z,22.65
2022-12-05T03:33:10.441Z,22.70
2022-12-05T03:35:59.782Z,21.08
2022-12-05T03:38:33.504Z,22.80
2022-12-05T03:41:55.700Z,23.15
2022-12-05T03:44:55.028Z,22.73
2022-12-05T03:47:51.875Z,21.60
2022-12-05T03:50:29.384Z,23.10
2022-12-05T03:53:19.707Z,21.38
2022-12-05T03:55:54.515Z,22.27
2022-12-05T03:58:34.470Z,22.83
2022-12-05T04:01:03.963Z,21.70
2022-12-05T04:03:41.567Z,21.33
2022-12-05T04:06:17.045Z,21.75
2022-12-05T04:08:51.224Z,22.92
2022-12-05T04:11:22.659Z,21.98
2022-12-05T04:13:55.541Z,22.63
2022-12-05T04:17:04.233Z,23.27
2022-12-05T04:20:35.230Z,23.20
2022-12-05T04:23:02.525Z,22.95
2022-12-05T04:25:37.470Z,23.50
2022-12-05T04:28:32.308Z,23.23
2022-12-05T04:31:16.253Z,22.80
2022-12-05T04:33:51.193Z,21.55
2022-12-05T04:36:29.904Z,22.35
2022-12-05T04:39:14.457Z,22.45
2022-12-05T04:41:53.292Z,21.65
2022-12-05T04:44:30.947Z,21.65
2022-12-05T04:47:01.858Z,22.13
2022-12-05T04:49:30.972Z,20.85
2022-12-05T04:52:02.046Z,21.55
2022-12-05T04:54:46.125Z,21.50
2022-12-05T04:57:24.449Z,21.52
2022-12-05T04:59:51.220Z,21.92
2022-12-05T05:02:21.818Z,21.10
2022-12-05T05:04:51.282Z,20.98
2022-12-05T05:07:18.595Z,22.45
2022-12-05T05:09:45.087Z,23.15
2022-12-05T05:12:17.199Z,21.50
2022-12-05T05:14:45.644Z,22.95
2022-12-05T05:17:12.345Z,22.85
2022-12-05T05:19:39.151Z,23.17
2022-12-05T05:22:05.549Z,21.88
2022-12-05T05:24:31.944Z,21.92
2022-12-05T05:26:58.310Z,22.00
2022-12-05T05:29:24.812Z,21.55
2022-12-05T05:31:51.219Z,22.92
2022-12-05T05:34:17.643Z,21.98
2022-12-05T05:36:44.357Z,21.15
2022-12-05T05:39:15.285Z,20.52
2022-12-05T05:41:42.662Z,20.08
2022-12-05T05:44:09.497Z,20.83
2022-12-05T05:46:36.543Z,20.13
2022-12-05T05:49:04.308Z,20.10
2022-12-05T05:51:30.804Z,20.00
2022-12-05T05:53:58.520Z,21.50
2022-12-05T05:56:25.412Z,20.38
2022-12-05T05:59:09.978Z,20.17
2022-12-05T06:01:36.356Z,20.75
2022-12-05T06:04:03.621Z,19.67
2022-12-05T06:06:30.110Z,19.83
2022-12-05T06:08:56.898Z,18.85
2022-12-05T06:11:26.994Z,19.15
2022-12-05T06:13:56.174Z,19.52
2022-12-05T06:16:23.225Z,19.17
2022-12-05T06:18:50.030Z,18.60
2022-12-05T06:21:17.247Z,18.08
2022-12-05T06:23:44.304Z,17.10
2022-12-05T06:26:13.125Z,17.90
2022-12-05T06:28:39.872Z,17.08
2022-12-05T06:31:08.632Z,18.60
2022-12-05T06:33:35.092Z,18.83
2022-12-05T06:36:03.996Z,18.13
2022-12-05T06:38:30.535Z,19.83
2022-12-05T06:40:56.900Z,19.30
2022-12-05T06:43:23.270Z,18.42
2022-12-05T06:45:49.913Z,20.23
2022-12-05T06:48:16.487Z,18.60
2022-12-05T06:50:52.990Z,18.98
2022-12-05T06:53:19.977Z,19.60
2022-12-05T06:56:01.308Z,19.67
2022-12-05T06:58:28.559Z,20.45
2022-12-05T07:01:14.090Z,19.05
2022-12-05T07:03:43.833Z,20.00
2022-12-05T07:06:10.547Z,20.25
2022-12-05T07:08:36.982Z,20.33
2022-12-05T07:11:04.074Z,19.25
2022-12-05T07:13:30.774Z,19.52
2022-12-05T07:15:58.917Z,19.70
2022-12-05T07:18:26.348Z,19.80
2022-12-05T07:21:13.594Z,19.02
2022-12-05T07:23:42.093Z,19.67
2022-12-05T07:26:11.202Z,19.60
2022-12-05T07:28:37.614Z,19.45
2022-12-05T07:31:06.555Z,18.50
2022-12-05T07:33:33.102Z,17.80
2022-12-05T07:36:01.542Z,18.08
2022-12-05T07:38:28.811Z,18.02
2022-12-05T07:40:55.278Z,17.75
2022-12-05T07:43:21.682Z,18.63
2022-12-05T07:45:48.108Z,18.30
2022-12-05T07:48:18.263Z,18.77
2022-12-05T07:50:45.816Z,18.52
2022-12-05T07:53:12.287Z,18.77
2022-12-05T07:55:39.135Z,19.35
2022-12-05T07:58:06.178Z,18.02
2022-12-05T08:00:32.586Z,18.92
2022-12-05T08:02:59.187Z,18.75
2022-12-05T08:05:25.687Z,17.45
2022-12-05T08:07:52.109Z,17.85
2022-12-05T08:10:18.684Z,17.58
2022-12-05T08:12:45.054Z,17.92
2022-12-05T08:15:11.620Z,18.55
2022-12-05T08:17:38.051Z,18.45
2022-12-05T08:20:05.093Z,16.10
2022-12-05T08:22:31.482Z,17.30
2022-12-05T08:24:58.048Z,17.05
2022-12-05T08:27:24.588Z,16.17
2022-12-05T08:29:51.067Z,16.55
2022-12-05T08:32:17.650Z,15.70
2022-12-05T08:34:44.091Z,14.85
2022-12-05T08:37:10.628Z,15.55
2022-12-05T08:39:38.962Z,15.30
2022-12-05T08:42:05.905Z,15.55
2022-12-05T08:44:32.348Z,15.10
2022-12-05T08:46:58.901Z,15.60
2022-12-05T08:49:25.274Z,16.65
2022-12-05T08:51:51.701Z,16.73
2022-12-05T08:54:18.150Z,16.88
2022-12-05T08:56:45.086Z,15.75
2022-12-05T08:59:11.677Z,16.25
2022-12-05T09:01:39.128Z,16.30
2022-12-05T09:04:06.495Z,16.45
2022-12-05T09:06:34.308Z,16.02
2022-12-05T09:09:06.942Z,17.08
2022-12-05T09:11:36.210Z,16.55
2022-12-05T09:14:04.755Z,16.40
2022-12-05T09:16:38.137Z,16.67
2022-12-05T09:19:10.775Z,18.42
2022-12-05T09:21:37.169Z,18.33
2022-12-05T09:24:03.749Z,17.77
2022-12-05T09:26:30.340Z,17.05
2022-12-05T09:28:57.311Z,19.00
2022-12-05T09:31:27.008Z,17.98
2022-12-05T09:33:54.519Z,17.92
2022-12-05T09:36:23.888Z,19.65
2022-12-05T09:38:52.030Z,19.17
2022-12-05T09:42:05.389Z,19.08
2022-12-05T09:45:20.123Z,19.67
2022-12-05T09:48:12.027Z,18.90
2022-12-05T09:50:49.035Z,19.77
2022-12-05T09:53:27.899Z,19.83
2022-12-05T09:56:02.174Z,19.92
2022-12-05T09:58:33.144Z,20.63
2022-12-05T10:01:24.210Z,20.08
2022-12-05T10:04:18.506Z,21.65
2022-12-05T10:06:51.025Z,21.98
2022-12-05T10:09:24.792Z,21.53
2022-12-05T10:12:01.588Z,22.23
2022-12-05T10:14:52.068Z,23.83
2022-12-05T10:17:23.503Z,22.27
2022-12-05T10:19:53.877Z,22.27
2022-12-05T10:22:28.322Z,22.65
2022-12-05T10:25:01.335Z,23.08
2022-12-05T10:27:40.012Z,23.48
2022-12-05T10:30:13.631Z,25.05
2022-12-05T10:32:55.491Z,25.08
2022-12-05T10:35:27.619Z,22.65
2022-12-05T10:37:58.163Z,17.48
2022-12-05T10:40:32.464Z,15.80
2022-12-05T10:42:58.903Z,14.57
2022-12-05T10:45:25.498Z,13.63
2022-12-05T10:47:57.284Z,11.88
2022-12-05T10:50:33.714Z,11.95
2022-12-05T10:53:02.172Z,11.68
2022-12-05T10:55:37.046Z,12.07
2022-12-05T10:58:23.878Z,11.50
2022-12-05T11:00:53.753Z,12.02
2022-12-05T11:03:27.848Z,11.75
2022-12-05T11:05:57.310Z,12.00
2022-12-05T11:08:41.768Z,12.20
2022-12-05T11:11:15.609Z,12.15
2022-12-05T11:13:58.948Z,12.75
2022-12-05T11:16:38.142Z,12.70
2022-12-05T11:19:26.423Z,13.60
2022-12-05T11:21:53.742Z,12.57
2022-12-05T11:24:26.643Z,12.70
2022-12-05T11:26:53.591Z,13.68
2022-12-05T11:29:38.448Z,13.32
2022-12-05T11:32:17.303Z,13.73
2022-12-05T11:34:50.399Z,14.05
2022-12-05T11:37:24.366Z,13.98
2022-12-05T11:39:52.019Z,13.90
2022-12-05T11:42:21.137Z,14.85
2022-12-05T11:45:04.471Z,14.80
2022-12-05T11:47:54.997Z,14.45
2022-12-05T11:50:57.344Z,15.60
2022-12-05T11:54:09.927Z,15.98
2022-12-05T11:56:39.027Z,15.23
2022-12-05T11:59:22.116Z,14.52
2022-12-05T12:02:07.152Z,15.50
2022-12-05T12:04:50.739Z,15.25
2022-12-05T12:07:35.792Z,14.60
2022-12-05T12:10:10.221Z,13.82
2022-12-05T12:12:43.625Z,14.52
2022-12-05T12:15:40.758Z,16.85
2022-12-05T12:18:37.024Z,12.63
2022-12-05T12:21:25.531Z,12.38
2022-12-05T12:24:01.228Z,11.70
2022-12-05T12:26:35.600Z,11.38
2022-12-05T12:29:19.938Z,12.18
2022-12-05T12:31:58.379Z,12.63
2022-12-05T12:34:50.024Z,14.85
2022-12-05T12:37:31.841Z,13.52
2022-12-05T12:40:13.040Z,12.90
2022-12-05T12:43:05.152Z,12.63
2022-12-05T12:45:49.508Z,12.65
2022-12-05T12:48:18.852Z,13.23
2022-12-05T12:50:52.545Z,13.82
2022-12-05T12:53:37.014Z,13.77
2022-12-05T12:56:36.490Z,13.13
2022-12-05T12:59:30.846Z,12.18
2022-12-05T13:02:05.414Z,11.95
2022-12-05T13:04:40.176Z,13.30
2022-12-05T13:07:13.652Z,14.20
2022-12-05T13:09:50.214Z,13.85
2022-12-05T13:12:24.811Z,12.50
2022-12-05T13:15:00.549Z,13.73
2022-12-05T13:17:29.211Z,12.85
2022-12-05T13:19:57.602Z,12.75
2022-12-05T13:22:27.410Z,12.90
2022-12-05T13:24:55.167Z,13.00
2022-12-05T13:27:27.565Z,12.20
2022-12-05T13:29:59.461Z,12.70
2022-12-05T13:32:31.924Z,13.63
2022-12-05T13:35:39.045Z,13.27
2022-12-05T13:38:24.356Z,12.73
2022-12-05T13:41:12.082Z,11.85
2022-12-05T13:43:51.495Z,11.82
2022-12-05T13:46:31.490Z,12.48
2022-12-05T13:49:17.208Z,12.25
2022-12-05T13:51:45.608Z,13.25
2022-12-05T13:54:25.880Z,13.07
2022-12-05T13:57:01.918Z,14.80
2022-12-05T14:00:00.343Z,14.32
2022-12-05T14:02:42.343Z,14.57
2022-12-05T14:05:21.017Z,16.63
2022-12-05T14:07:50.230Z,15.05
2022-12-05T14:10:29.331Z,14.68
2022-12-05T14:13:30.001Z,15.48
2022-12-05T14:16:25.469Z,16.92
2022-12-05T14:19:03.899Z,17.13
2022-12-05T14:21:49.002Z,16.98
2022-12-05T14:24:43.775Z,16.42
2022-12-05T14:27:13.758Z,14.93
2022-12-05T14:30:05.137Z,15.25
2022-12-05T14:32:35.828Z,15.40
2022-12-05T14:35:32.162Z,15.63
2022-12-05T14:38:04.890Z,15.35
2022-12-05T14:40:39.084Z,14.60
2022-12-05T14:43:34.457Z,14.48
2022-12-05T14:46:04.181Z,14.60
2022-12-05T14:48:36.502Z,14.98
2022-12-05T14:51:28.690Z,15.07
2022-12-05T14:53:56.443Z,14.85
2022-12-05T14:56:27.920Z,14.57
2022-12-05T14:59:13.576Z,14.90
2022-12-05T15:01:52.764Z,14.48
2022-12-05T15:04:32.508Z,14.35
2022-12-05T15:07:18.063Z,15.10
2022-12-05T15:09:58.467Z,14.45
2022-12-05T15:12:38.041Z,14.10
2022-12-05T15:15:13.531Z,13.63
2022-12-05T15:17:53.685Z,13.73
2022-12-05T15:20:35.507Z,13.60
2022-12-05T15:23:40.068Z,15.82
2022-12-05T15:26:45.470Z,17.25
2022-12-05T15:29:09.919Z,16.85
2022-12-05T15:31:44.215Z,16.58
2022-12-05T15:34:38.264Z,18.13
2022-12-05T15:37:27.763Z,15.23
2022-12-05T15:40:17.624Z,14.52
2022-12-05T15:42:46.976Z,13.27
2022-12-05T15:45:16.320Z,13.32
2022-12-05T15:47:48.424Z,14.68
2022-12-05T15:50:16.689Z,13.57
2022-12-05T15:52:54.954Z,13.35
2022-12-05T15:55:35.316Z,13.52
2022-12-05T15:58:20.416Z,14.05
2022-12-05T16:00:50.606Z,14.98
2022-12-05T16:03:24.153Z,15.18
2022-12-05T16:06:01.599Z,29.35
2022-12-05T16:08:40.524Z,20.95
2022-12-05T16:11:08.898Z,33.65
2022-12-05T16:13:35.625Z,32.97
2022-12-05T16:16:05.321Z,39.70
2022-12-05T16:18:32.644Z,30.90
2022-12-05T16:20:59.063Z,35.25
2022-12-05T16:23:25.378Z,28.80
2022-12-05T16:25:52.206Z,25.90
2022-12-05T16:28:21.346Z,27.35
2022-12-05T16:30:56.593Z,31.60
2022-12-05T16:33:23.351Z,32.40
2022-12-05T16:35:50.315Z,32.92
2022-12-05T16:38:16.723Z,22.20
2022-12-05T16:40:45.942Z,22.45
2022-12-05T16:43:27.697Z,21.25
2022-12-05T16:45:56.051Z,21.63
2022-12-05T16:48:31.709Z,17.88
2022-12-05T16:51:19.314Z,18.05
2022-12-05T16:53:51.937Z,19.55
2022-12-05T16:56:22.591Z,19.83
2022-12-05T16:58:50.742Z,20.83
2022-12-05T17:01:24.436Z,18.15
2022-12-05T17:03:55.583Z,19.00
2022-12-05T17:06:24.008Z,18.65
2022-12-05T17:08:51.969Z,15.82
2022-12-05T17:11:23.449Z,16.83
2022-12-05T17:13:50.838Z,20.10
2022-12-05T17:16:18.171Z,17.90
2022-12-05T17:18:45.248Z,17.88
2022-12-05T17:21:16.228Z,22.00
2022-12-05T17:23:47.792Z,19.13
2022-12-05T17:26:17.040Z,17.30
2022-12-05T17:28:43.943Z,16.50
2022-12-05T17:31:14.524Z,17.63
2022-12-05T17:33:40.951Z,17.25
2022-12-05T17:36:07.596Z,17.42
2022-12-05T17:38:33.947Z,16.30
2022-12-05T17:41:03.851Z,16.15
2022-12-05T17:43:33.910Z,15.88
2022-12-05T17:46:00.976Z,15.43
2022-12-05T17:48:27.565Z,16.00
2022-12-05T17:50:57.600Z,16.95
2022-12-05T17:53:24.690Z,15.75
2022-12-05T17:55:51.324Z,16.52
2022-12-05T17:58:18.173Z,15.57
2022-12-05T18:00:45.561Z,15.77
2022-12-05T18:03:14.676Z,14.85
2022-12-05T18:05:41.383Z,15.93
2022-12-05T18:08:09.165Z,15.93
2022-12-05T18:10:35.876Z,16.15
2022-12-05T18:13:02.619Z,16.40
2022-12-05T18:15:29.159Z,16.40
2022-12-05T18:17:55.591Z,16.42
2022-12-05T18:20:21.988Z,17.63
2022-12-05T18:22:48.643Z,18.95
2022-12-05T18:25:15.027Z,17.90
2022-12-05T18:27:41.500Z,17.42
2022-12-05T18:30:08.443Z,17.42
2022-12-05T18:32:34.941Z,16.80
2022-12-05T18:35:04.691Z,16.15
2022-12-05T18:37:36.433Z,17.15
2022-12-05T18:40:04.650Z,18.63
2022-12-05T18:42:31.207Z,16.30
2022-12-05T18:44:58.271Z,17.60
2022-12-05T18:47:25.309Z,17.60
2022-12-05T18:49:54.540Z,17.95
2022-12-05T18:52:20.997Z,18.08
2022-12-05T18:54:57.640Z,16.88
2022-12-05T18:57:33.771Z,18.15
2022-12-05T19:00:00.526Z,18.30
2022-12-05T19:02:28.067Z,17.85
2022-12-05T19:04:54.908Z,18.50
2022-12-05T19:07:21.846Z,18.48
2022-12-05T19:09:48.226Z,18.55
2022-12-05T19:12:14.636Z,16.38
2022-12-05T19:14:41.011Z,17.50
2022-12-05T19:17:07.422Z,17.15
2022-12-05T19:19:34.159Z,17.52
2022-12-05T19:22:00.818Z,15.35
2022-12-05T19:24:27.183Z,17.10
2022-12-05T19:26:53.740Z,18.30
2022-12-05T19:29:20.099Z,16.55
2022-12-05T19:31:46.908Z,16.30
2022-12-05T19:34:13.482Z,16.30
2022-12-05T19:36:45.446Z,15.10
2022-12-05T19:39:21.377Z,14.85
2022-12-05T19:41:48.214Z,15.23
2022-12-05T19:44:15.235Z,15.95
2022-12-05T19:46:41.748Z,15.27
2022-12-05T19:49:11.827Z,15.50
2022-12-05T19:51:38.947Z,13.63
2022-12-05T19:54:06.751Z,15.00
2022-12-05T19:56:34.742Z,15.68
2022-12-05T19:59:01.518Z,14.38
2022-12-05T20:01:33.460Z,15.25
2022-12-05T20:04:02.193Z,15.68
2022-12-05T20:06:51.672Z,14.52
2022-12-05T20:09:20.129Z,15.80
2022-12-05T20:11:54.583Z,17.10
2022-12-05T20:14:24.002Z,16.75
2022-12-05T20:16:50.500Z,17.63
2022-12-05T20:19:17.015Z,17.10
2022-12-05T20:21:44.357Z,16.55
2022-12-05T20:24:11.632Z,19.33
2022-12-05T20:26:41.027Z,18.77
2022-12-05T20:29:07.724Z,18.17
2022-12-05T20:31:39.525Z,18.92
2022-12-05T20:34:07.159Z,19.40
2022-12-05T20:36:35.011Z,19.20
2022-12-05T20:39:04.941Z,19.23
2022-12-05T20:41:31.371Z,17.77
2022-12-05T20:44:00.390Z,19.35
2022-12-05T20:46:28.209Z,16.77
2022-12-05T20:48:56.294Z,18.52
2022-12-05T20:51:31.189Z,17.73
2022-12-05T20:53:59.515Z,17.45
2022-12-05T20:56:31.709Z,17.27
2022-12-05T20:59:01.021Z,17.33
2022-12-05T21:01:28.954Z,17.58
2022-12-05T21:03:55.723Z,18.75
2022-12-05T21:06:27.825Z,19.27
2022-12-05T21:08:55.024Z,18.80
2022-12-05T21:11:22.706Z,19.23
2022-12-05T21:13:49.111Z,18.90
2022-12-05T21:16:18.524Z,18.95
2022-12-05T21:18:45.954Z,18.35
2022-12-05T21:21:15.059Z,18.92
2022-12-05T21:23:42.715Z,17.48
2022-12-05T21:26:13.069Z,17.83
2022-12-05T21:28:40.189Z,17.20
2022-12-05T21:31:08.198Z,17.00
2022-12-05T21:33:35.423Z,17.58
2022-12-05T21:36:01.973Z,17.83
2022-12-05T21:38:28.375Z,17.63
2022-12-05T21:40:54.753Z,17.13
2022-12-05T21:43:21.124Z,18.08
2022-12-05T21:45:54.964Z,17.38
2022-12-05T21:48:23.703Z,16.55
2022-12-05T21:50:50.592Z,17.20
2022-12-05T21:53:18.363Z,16.33
2022-12-05T21:55:45.193Z,17.52
2022-12-05T21:58:12.102Z,16.77
2022-12-05T22:00:39.257Z,18.13
2022-12-05T22:03:06.680Z,18.08
2022-12-05T22:05:33.389Z,19.08
2022-12-05T22:08:04.868Z,18.85
2022-12-05T22:10:34.438Z,18.42
2022-12-05T22:13:00.807Z,19.00
2022-12-05T22:15:27.561Z,18.33
2022-12-05T22:17:54.089Z,18.70
2022-12-05T22:20:20.470Z,18.33
2022-12-05T22:22:46.855Z,18.23
2022-12-05T22:25:13.415Z,18.27
2022-12-05T22:27:39.832Z,17.90
2022-12-05T22:30:07.047Z,21.15
2022-12-05T22:32:33.604Z,24.55
2022-12-05T22:35:03.721Z,22.15
2022-12-05T22:37:30.818Z,27.23
2022-12-05T22:39:57.878Z,28.02
2022-12-05T22:42:26.410Z,25.02
2022-12-05T22:44:53.321Z,23.33
2022-12-05T22:47:19.708Z,31.45
2022-12-05T22:49:46.073Z,23.88
2022-12-05T22:52:12.435Z,21.85
2022-12-05T22:54:39.069Z,20.65
2022-12-05T22:57:05.483Z,19.75
2022-12-05T22:59:31.896Z,21.10
2022-12-05T23:01:58.406Z,21.77
2022-12-05T23:04:25.097Z,27.80
2022-12-05T23:06:51.655Z,29.40
2022-12-05T23:09:18.166Z,28.98
2022-12-05T23:11:44.740Z,22.40
2022-12-05T23:14:11.185Z,31.00
2022-12-05T23:16:38.284Z,27.10
2022-12-05T23:19:06.164Z,24.73
2022-12-05T23:21:34.447Z,29.27
2022-12-05T23:24:03.335Z,29.45
2022-12-05T23:26:47.959Z,27.13
2022-12-05T23:29:14.844Z,30.90
2022-12-05T23:31:42.283Z,22.85
2022-12-05T23:34:09.425Z,24.33
2022-12-05T23:36:36.398Z,21.58
2022-12-05T23:39:03.453Z,26.63
2022-12-05T23:41:29.963Z,21.10
2022-12-05T23:43:56.744Z,21.80
2022-12-05T23:46:26.277Z,22.30
2022-12-05T23:48:53.017Z,22.33
2022-12-05T23:51:25.286Z,20.75
2022-12-05T23:53:57.078Z,20.08
2022-12-05T23:56:27.084Z,20.92
2022-12-05T23:58:54.853Z,19.70
